createdAt,value
2022-10-05T00:01:24.139Z,9.05
2022-10-05T00:03:51.038Z,8.57
2022-10-05T00:06:17.506Z,8.77
2022-10-05T00:08:44.150Z,9.50
2022-10-05T00:11:13.223Z,9.77
2022-10-05T00:13:39.950Z,10.55
2022-10-05T00:16:15.843Z,9.82
2022-10-05T00:18:43.343Z,10.77
2022-10-05T00:21:18.975Z,10.02
2022-10-05T00:23:45.517Z,10.07
2022-10-05T00:26:14.544Z,10.15
2022-10-05T00:28:41.337Z,10.13
2022-10-05T00:31:28.078Z,10.77
2022-10-05T00:33:56.529Z,15.02
2022-10-05T00:36:23.273Z,10.32
2022-10-05T00:38:49.710Z,9.68
2022-10-05T00:41:48.615Z,9.40
2022-10-05T00:44:24.179Z,10.32
2022-10-05T00:46:59.791Z,10.40
2022-10-05T00:49:44.953Z,9.43
2022-10-05T00:52:21.996Z,9.50
2022-10-05T00:55:07.610Z,9.73
2022-10-05T00:57:41.198Z,9.73
2022-10-05T01:00:13.362Z,9.40
2022-10-05T01:02:51.903Z,9.82
2022-10-05T01:05:37.018Z,11.65
2022-10-05T01:08:32.806Z,10.30
2022-10-05T01:10:59.226Z,9.02
2022-10-05T01:13:31.909Z,9.40
2022-10-05T01:16:05.659Z,9.43
2022-10-05T01:18:32.114Z,9.65
2022-10-05T01:21:04.741Z,9.50
2022-10-05T01:23:34.217Z,9.48
2022-10-05T01:26:06.874Z,9.90
2022-10-05T01:28:48.796Z,9.60
2022-10-05T01:31:15.230Z,9.57
2022-10-05T01:33:46.366Z,9.52
2022-10-05T01:36:12.761Z,8.77
2022-10-05T01:38:39.156Z,9.40
2022-10-05T01:41:05.655Z,9.00
2022-10-05T01:43:50.923Z,9.73
2022-10-05T01:46:28.808Z,10.40
2022-10-05T01:48:55.945Z,9.27
2022-10-05T01:51:29.019Z,11.65
2022-10-05T01:54:07.704Z,9.20
2022-10-05T01:56:37.324Z,9.48
2022-10-05T01:59:18.011Z,9.85
2022-10-05T02:01:47.592Z,10.43
2022-10-05T02:04:35.568Z,9.25
2022-10-05T02:07:06.916Z,9.57
2022-10-05T02:09:36.852Z,9.30
2022-10-05T02:12:11.736Z,9.30
2022-10-05T02:14:39.754Z,9.40
2022-10-05T02:17:19.157Z,10.10
2022-10-05T02:19:54.510Z,9.88
2022-10-05T02:22:28.725Z,9.40
2022-10-05T02:24:57.342Z,9.23
2022-10-05T02:27:31.578Z,10.07
2022-10-05T02:30:01.610Z,9.75
2022-10-05T02:32:44.771Z,9.70
2022-10-05T02:35:15.796Z,9.63
2022-10-05T02:37:57.372Z,9.85
2022-10-05T02:40:37.247Z,9.77
2022-10-05T02:43:16.955Z,10.30
2022-10-05T02:45:56.634Z,10.25
2022-10-05T02:48:23.291Z,9.85
2022-10-05T02:51:02.321Z,10.50
2022-10-05T02:53:46.138Z,10.43
2022-10-05T02:56:18.627Z,10.43
2022-10-05T02:58:48.308Z,9.90
2022-10-05T03:01:33.942Z,10.95
2022-10-05T03:04:10.749Z,9.15
2022-10-05T03:06:46.382Z,10.70
2022-10-05T03:09:16.391Z,9.73
2022-10-05T03:12:04.821Z,9.95
2022-10-05T03:14:46.502Z,10.13
2022-10-05T03:17:15.668Z,9.75
2022-10-05T03:19:44.574Z,10.23
2022-10-05T03:22:24.995Z,10.60
2022-10-05T03:25:10.383Z,9.00
2022-10-05T03:27:42.267Z,9.00
2022-10-05T03:30:15.440Z,9.23
2022-10-05T03:32:58.150Z,9.50
2022-10-05T03:35:43.275Z,10.52
2022-10-05T03:38:18.044Z,9.82
2022-10-05T03:40:59.553Z,9.48
2022-10-05T03:43:33.058Z,9.32
2022-10-05T03:46:12.602Z,9.68
2022-10-05T03:48:42.126Z,9.63
2022-10-05T03:51:20.781Z,9.48
2022-10-05T03:53:56.245Z,9.60
2022-10-05T03:56:44.329Z,9.40
2022-10-05T03:59:22.279Z,10.40
2022-10-05T04:01:51.292Z,10.82
2022-10-05T04:04:28.050Z,10.60
2022-10-05T04:06:55.703Z,10.65
2022-10-05T04:09:22.869Z,9.93
2022-10-05T04:11:52.901Z,10.73
2022-10-05T04:14:25.416Z,11.48
2022-10-05T04:16:54.468Z,11.23
2022-10-05T04:19:23.270Z,9.90
2022-10-05T04:22:09.650Z,10.38
2022-10-05T04:24:54.993Z,11.25
2022-10-05T04:27:23.806Z,11.13
2022-10-05T04:30:12.438Z,10.80
2022-10-05T04:32:48.450Z,10.13
2022-10-05T04:35:38.092Z,10.07
2022-10-05T04:38:23.558Z,9.70
2022-10-05T04:40:57.815Z,10.60
2022-10-05T04:43:24.280Z,9.50
2022-10-05T04:46:06.198Z,10.23
2022-10-05T04:48:51.481Z,9.98
2022-10-05T04:51:29.996Z,9.70
2022-10-05T04:54:16.957Z,9.88
2022-10-05T04:56:49.607Z,10.00
2022-10-05T04:59:28.139Z,11.25
2022-10-05T05:02:13.748Z,10.20
2022-10-05T05:04:47.161Z,10.68
2022-10-05T05:07:30.910Z,10.23
2022-10-05T05:10:19.020Z,9.13
2022-10-05T05:13:05.732Z,10.20
2022-10-05T05:15:37.771Z,10.00
2022-10-05T05:18:39.839Z,10.65
2022-10-05T05:21:21.406Z,9.95
2022-10-05T05:24:22.485Z,10.13
2022-10-05T05:27:11.959Z,9.80
2022-10-05T05:29:44.995Z,9.57
2022-10-05T05:32:22.333Z,10.07
2022-10-05T05:35:00.247Z,9.57
2022-10-05T05:37:41.355Z,9.40
2022-10-05T05:40:22.917Z,9.05
2022-10-05T05:43:00.425Z,10.70
2022-10-05T05:45:27.627Z,14.05
2022-10-05T05:47:55.051Z,13.88
2022-10-05T05:50:24.317Z,11.40
2022-10-05T05:52:55.808Z,9.95
2022-10-05T05:55:30.120Z,10.50
2022-10-05T05:58:06.163Z,10.13
2022-10-05T06:00:37.568Z,9.73
2022-10-05T06:03:11.620Z,9.32
2022-10-05T06:05:41.854Z,8.65
2022-10-05T06:08:29.465Z,10.07
2022-10-05T06:11:06.682Z,9.25
2022-10-05T06:13:35.888Z,8.65
2022-10-05T06:16:14.924Z,9.05
2022-10-05T06:18:43.726Z,8.73
2022-10-05T06:21:30.228Z,9.00
2022-10-05T06:24:10.641Z,8.75
2022-10-05T06:26:46.399Z,8.73
2022-10-05T06:29:21.005Z,7.80
2022-10-05T06:31:58.610Z,7.35
2022-10-05T06:34:50.915Z,8.30
2022-10-05T06:37:34.373Z,7.95
2022-10-05T06:40:03.792Z,8.35
2022-10-05T06:42:59.379Z,8.05
2022-10-05T06:45:34.815Z,8.38
2022-10-05T06:48:09.960Z,8.60
2022-10-05T06:51:09.650Z,8.13
2022-10-05T06:53:49.527Z,8.00
2022-10-05T06:56:33.244Z,8.32
2022-10-05T06:59:03.892Z,7.70
2022-10-05T07:01:49.744Z,8.32
2022-10-05T07:04:16.470Z,7.88
2022-10-05T07:06:46.129Z,7.75
2022-10-05T07:09:27.984Z,7.72
2022-10-05T07:12:05.212Z,8.60
2022-10-05T07:14:55.513Z,7.35
2022-10-05T07:17:44.221Z,7.70
2022-10-05T07:20:21.099Z,7.50
2022-10-05T07:23:07.875Z,8.10
2022-10-05T07:25:47.250Z,7.30
2022-10-05T07:28:21.112Z,7.68
2022-10-05T07:31:07.145Z,7.05
2022-10-05T07:33:38.131Z,6.53
2022-10-05T07:36:45.033Z,7.55
2022-10-05T07:39:32.411Z,7.32
2022-10-05T07:42:27.984Z,7.43
2022-10-05T07:45:00.406Z,6.97
2022-10-05T07:47:38.264Z,6.30
2022-10-05T07:50:08.646Z,7.68
2022-10-05T07:52:44.954Z,7.45
2022-10-05T07:55:12.294Z,6.85
2022-10-05T07:57:57.888Z,6.45
2022-10-05T08:00:27.345Z,6.30
2022-10-05T08:03:00.477Z,6.47
2022-10-05T08:05:46.993Z,6.25
2022-10-05T08:08:33.516Z,6.07
2022-10-05T08:11:05.276Z,5.22
2022-10-05T08:13:37.043Z,6.38
2022-10-05T08:16:06.520Z,5.88
2022-10-05T08:18:45.918Z,5.40
2022-10-05T08:21:16.113Z,5.60
2022-10-05T08:23:49.354Z,5.47
2022-10-05T08:26:29.573Z,5.78
2022-10-05T08:29:14.600Z,5.63
2022-10-05T08:31:55.578Z,5.35
2022-10-05T08:34:40.377Z,5.28
2022-10-05T08:37:09.353Z,5.25
2022-10-05T08:39:40.854Z,5.25
2022-10-05T08:42:26.157Z,4.80
2022-10-05T08:45:24.263Z,5.22
2022-10-05T08:48:09.835Z,4.60
2022-10-05T08:50:48.480Z,5.05
2022-10-05T08:53:20.446Z,4.95
2022-10-05T08:55:49.973Z,4.78
2022-10-05T08:58:25.396Z,5.05
2022-10-05T09:00:57.898Z,5.25
2022-10-05T09:03:43.128Z,4.57
2022-10-05T09:06:28.493Z,5.03
2022-10-05T09:09:03.263Z,5.22
2022-10-05T09:11:37.168Z,5.03
2022-10-05T09:14:31.155Z,5.53
2022-10-05T09:17:05.053Z,5.25
2022-10-05T09:19:35.314Z,5.72
2022-10-05T09:22:14.054Z,5.55
2022-10-05T09:24:57.376Z,5.78
2022-10-05T09:27:43.194Z,5.07
2022-10-05T09:30:32.857Z,5.28
2022-10-05T09:32:59.517Z,5.53
2022-10-05T09:35:58.055Z,4.82
2022-10-05T09:38:34.935Z,5.30
2022-10-05T09:41:22.109Z,5.00
2022-10-05T09:44:11.286Z,4.60
2022-10-05T09:46:37.950Z,5.15
2022-10-05T09:49:16.877Z,5.07
2022-10-05T09:51:52.569Z,4.65
2022-10-05T09:54:21.856Z,4.50
2022-10-05T09:57:04.124Z,4.40
2022-10-05T09:59:47.632Z,3.85
2022-10-05T10:02:43.547Z,4.03
2022-10-05T10:05:25.328Z,4.03
2022-10-05T10:07:55.654Z,4.05
2022-10-05T10:10:41.094Z,4.13
2022-10-05T10:13:16.621Z,4.35
2022-10-05T10:16:02.184Z,4.47
2022-10-05T10:18:47.262Z,4.38
2022-10-05T10:21:33.195Z,3.72
2022-10-05T10:24:03.199Z,4.00
2022-10-05T10:26:48.913Z,3.97
2022-10-05T10:29:15.448Z,3.95
2022-10-05T10:31:51.194Z,4.20
2022-10-05T10:34:37.740Z,4.22
2022-10-05T10:37:08.462Z,4.22
2022-10-05T10:39:55.367Z,3.90
2022-10-05T10:42:40.599Z,3.80
2022-10-05T10:45:17.147Z,3.60
2022-10-05T10:48:03.637Z,3.20
2022-10-05T10:50:30.148Z,3.03
2022-10-05T10:53:15.671Z,3.28
2022-10-05T10:56:00.536Z,3.15
2022-10-05T10:58:50.795Z,3.45
2022-10-05T11:01:29.468Z,3.30
2022-10-05T11:04:08.440Z,3.47
2022-10-05T11:06:39.683Z,3.65
2022-10-05T11:09:27.074Z,3.70
2022-10-05T11:12:08.990Z,3.85
2022-10-05T11:14:46.018Z,3.83
2022-10-05T11:17:15.916Z,3.33
2022-10-05T11:20:02.916Z,4.07
2022-10-05T11:22:43.058Z,3.67
2022-10-05T11:25:29.864Z,2.97
2022-10-05T11:27:59.194Z,3.30
2022-10-05T11:30:47.452Z,3.33
2022-10-05T11:33:36.008Z,3.67
2022-10-05T11:36:20.864Z,4.10
2022-10-05T11:39:04.049Z,3.20
2022-10-05T11:41:36.425Z,3.15
2022-10-05T11:44:17.060Z,3.50
2022-10-05T11:46:47.822Z,3.40
2022-10-05T11:49:19.850Z,2.90
2022-10-05T11:51:52.387Z,3.25
2022-10-05T11:54:21.948Z,3.78
2022-10-05T11:56:50.849Z,3.25
2022-10-05T11:59:34.512Z,3.45
2022-10-05T12:02:00.953Z,4.13
2022-10-05T12:04:36.598Z,3.67
2022-10-05T12:07:18.210Z,3.22
2022-10-05T12:10:17.063Z,3.08
2022-10-05T12:12:46.324Z,2.50
2022-10-05T12:15:25.542Z,2.30
2022-10-05T12:18:08.863Z,2.17
2022-10-05T12:20:54.955Z,2.38
2022-10-05T12:23:33.161Z,1.85
2022-10-05T12:26:13.658Z,2.00
2022-10-05T12:28:47.480Z,2.03
2022-10-05T12:31:18.352Z,1.90
2022-10-05T12:33:51.086Z,2.10
2022-10-05T12:36:20.456Z,1.90
2022-10-05T12:38:50.069Z,2.63
2022-10-05T12:41:27.823Z,1.80
2022-10-05T12:44:33.933Z,1.95
2022-10-05T12:47:06.110Z,1.88
2022-10-05T12:49:57.722Z,1.15
2022-10-05T12:52:25.537Z,2.05
2022-10-05T12:55:01.339Z,2.15
2022-10-05T12:57:55.759Z,1.38
2022-10-05T13:00:23.362Z,1.98
2022-10-05T13:02:54.750Z,1.40
2022-10-05T13:05:39.745Z,1.20
2022-10-05T13:08:32.775Z,1.33
2022-10-05T13:11:39.192Z,1.42
2022-10-05T13:14:08.403Z,1.40
2022-10-05T13:16:34.988Z,1.45
2022-10-05T13:19:13.595Z,1.38
2022-10-05T13:21:46.076Z,1.40
2022-10-05T13:24:17.347Z,1.40
2022-10-05T13:26:50.091Z,1.30
2022-10-05T13:29:22.190Z,1.40
2022-10-05T13:31:57.311Z,1.45
2022-10-05T13:34:42.592Z,1.20
2022-10-05T13:37:09.095Z,1.13
2022-10-05T13:39:41.040Z,1.63
2022-10-05T13:42:11.382Z,1.00
2022-10-05T13:44:50.652Z,1.15
2022-10-05T13:47:17.127Z,1.30
2022-10-05T13:49:50.782Z,1.10
2022-10-05T13:52:34.939Z,1.50
2022-10-05T13:55:01.389Z,1.20
2022-10-05T13:57:45.186Z,1.20
2022-10-05T14:00:14.905Z,1.33
2022-10-05T14:02:43.366Z,1.40
2022-10-05T14:05:20.795Z,1.30
2022-10-05T14:08:02.602Z,1.20
2022-10-05T14:10:39.871Z,1.80
2022-10-05T14:13:18.268Z,1.23
2022-10-05T14:15:56.104Z,1.38
2022-10-05T14:18:27.314Z,1.23
2022-10-05T14:21:17.486Z,1.20
2022-10-05T14:23:44.387Z,1.15
2022-10-05T14:26:17.866Z,1.38
2022-10-05T14:28:56.151Z,1.42
2022-10-05T14:31:29.292Z,1.40
2022-10-05T14:33:56.837Z,1.40
2022-10-05T14:36:34.931Z,1.77
2022-10-05T14:39:04.995Z,1.50
2022-10-05T14:41:37.587Z,1.35
2022-10-05T14:44:24.378Z,1.20
2022-10-05T14:46:55.638Z,1.20
2022-10-05T14:49:25.759Z,1.33
2022-10-05T14:51:53.427Z,1.10
2022-10-05T14:54:43.772Z,1.52
2022-10-05T14:57:14.566Z,1.40
2022-10-05T15:00:02.217Z,1.10
2022-10-05T15:02:48.613Z,1.20
2022-10-05T15:05:35.019Z,1.27
2022-10-05T15:08:10.427Z,1.23
2022-10-05T15:10:41.240Z,1.30
2022-10-05T15:13:25.647Z,1.60
2022-10-05T15:15:54.631Z,1.50
2022-10-05T15:18:31.835Z,1.50
2022-10-05T15:21:24.170Z,1.05
2022-10-05T15:23:54.685Z,1.40
2022-10-05T15:26:38.513Z,1.30
2022-10-05T15:29:04.908Z,1.25
2022-10-05T15:31:51.650Z,1.70
2022-10-05T15:34:24.820Z,2.00
2022-10-05T15:37:10.045Z,1.83
2022-10-05T15:39:45.726Z,1.90
2022-10-05T15:42:14.670Z,2.70
2022-10-05T15:44:46.998Z,1.90
2022-10-05T15:47:19.758Z,2.30
2022-10-05T15:49:57.179Z,2.33
2022-10-05T15:52:29.623Z,2.90
2022-10-05T15:55:32.530Z,2.65
2022-10-05T15:58:17.501Z,2.00
2022-10-05T16:00:48.812Z,1.85
2022-10-05T16:03:23.346Z,1.60
2022-10-05T16:06:13.545Z,1.50
2022-10-05T16:08:54.003Z,1.60
2022-10-05T16:11:37.863Z,1.98
2022-10-05T16:14:15.599Z,1.60
2022-10-05T16:16:51.669Z,1.58
2022-10-05T16:19:26.545Z,1.73
2022-10-05T16:22:07.822Z,1.52
2022-10-05T16:24:53.230Z,1.80
2022-10-05T16:27:35.055Z,1.77
2022-10-05T16:30:11.200Z,1.85
2022-10-05T16:32:42.449Z,1.50
2022-10-05T16:35:14.916Z,1.45
2022-10-05T16:38:00.132Z,1.40
2022-10-05T16:40:43.771Z,1.50
2022-10-05T16:43:31.434Z,1.30
2022-10-05T16:48:46.006Z,1.92
2022-10-05T16:51:19.591Z,1.70
2022-10-05T16:53:59.220Z,2.10
2022-10-05T16:56:28.942Z,1.60
2022-10-05T16:59:01.671Z,1.70
2022-10-05T17:02:02.170Z,1.52
2022-10-05T17:04:31.542Z,2.13
2022-10-05T17:06:58.730Z,1.83
2022-10-05T17:09:37.529Z,2.65
2022-10-05T17:12:36.347Z,1.88
2022-10-05T17:15:10.487Z,2.20
2022-10-05T17:17:58.669Z,1.60
2022-10-05T17:20:50.597Z,2.10
2022-10-05T17:23:29.197Z,1.80
2022-10-05T17:25:58.384Z,2.25
2022-10-05T17:28:26.727Z,1.92
2022-10-05T17:31:13.914Z,1.90
2022-10-05T17:33:58.969Z,2.30
2022-10-05T17:36:43.997Z,2.13
2022-10-05T17:39:14.529Z,2.30
2022-10-05T17:41:41.074Z,2.35
2022-10-05T17:44:17.161Z,1.90
2022-10-05T17:46:46.511Z,2.03
2022-10-05T17:49:32.029Z,1.80
2022-10-05T17:52:18.562Z,2.05
2022-10-05T17:55:04.088Z,2.05
2022-10-05T17:57:34.091Z,2.20
2022-10-05T18:00:02.897Z,1.98
2022-10-05T18:02:45.286Z,1.85
2022-10-05T18:05:20.413Z,2.38
2022-10-05T18:07:48.876Z,2.20
2022-10-05T18:10:40.425Z,2.45
2022-10-05T18:13:20.451Z,2.00
2022-10-05T18:15:50.799Z,1.77
2022-10-05T18:18:38.776Z,1.90
2022-10-05T18:21:16.509Z,2.15
2022-10-05T18:24:00.659Z,2.28
2022-10-05T18:26:46.780Z,2.90
2022-10-05T18:29:39.710Z,2.15
2022-10-05T18:32:26.730Z,2.50
2022-10-05T18:35:08.004Z,2.42
2022-10-05T18:37:54.813Z,2.53
2022-10-05T18:40:22.924Z,2.05
2022-10-05T18:42:57.150Z,2.05
2022-10-05T18:45:32.821Z,1.60
2022-10-05T18:48:05.491Z,2.05
2022-10-05T18:50:38.355Z,1.88
2022-10-05T18:53:09.245Z,2.00
2022-10-05T18:55:43.018Z,2.10
2022-10-05T18:58:36.901Z,1.60
2022-10-05T19:01:22.739Z,1.75
2022-10-05T19:04:13.221Z,1.75
2022-10-05T19:06:43.029Z,2.13
2022-10-05T19:09:18.594Z,1.85
2022-10-05T19:11:57.763Z,2.70
2022-10-05T19:14:56.647Z,2.45
2022-10-05T19:17:23.064Z,2.10
2022-10-05T19:19:58.682Z,2.63
2022-10-05T19:22:44.223Z,2.83
2022-10-05T19:25:20.500Z,2.17
2022-10-05T19:28:05.874Z,2.55
2022-10-05T19:30:46.136Z,2.50
2022-10-05T19:33:18.874Z,2.70
2022-10-05T19:35:45.459Z,1.88
2022-10-05T19:38:15.566Z,2.17
2022-10-05T19:40:42.376Z,2.25
2022-10-05T19:43:08.797Z,2.30
2022-10-05T19:46:01.721Z,2.42
2022-10-05T19:49:06.853Z,2.03
2022-10-05T19:51:38.221Z,2.15
2022-10-05T19:54:16.756Z,2.08
2022-10-05T19:56:49.408Z,1.98
2022-10-05T19:59:20.129Z,1.83
2022-10-05T20:01:50.682Z,2.45
2022-10-05T20:04:31.319Z,1.98
2022-10-05T20:06:58.686Z,1.90
2022-10-05T20:09:25.148Z,2.35
2022-10-05T20:11:52.474Z,2.05
2022-10-05T20:14:32.381Z,2.03
2022-10-05T20:17:53.114Z,2.10
2022-10-05T20:20:23.442Z,1.73
2022-10-05T20:22:49.875Z,1.90
2022-10-05T20:25:19.302Z,2.03
2022-10-05T20:27:49.967Z,1.88
2022-10-05T20:30:18.440Z,1.70
2022-10-05T20:32:51.907Z,2.13
2022-10-05T20:35:21.569Z,1.98
2022-10-05T20:37:49.901Z,2.13
2022-10-05T20:40:17.678Z,2.00
2022-10-05T20:42:44.223Z,2.22
2022-10-05T20:45:11.337Z,2.22
2022-10-05T20:47:38.236Z,2.25
2022-10-05T20:50:05.584Z,2.33
2022-10-05T20:52:32.004Z,2.60
2022-10-05T20:54:58.912Z,2.20
2022-10-05T20:57:26.570Z,2.30
2022-10-05T20:59:53.242Z,2.75
2022-10-05T21:02:19.694Z,2.75
2022-10-05T21:04:47.640Z,2.40
2022-10-05T21:07:19.866Z,2.30
2022-10-05T21:09:46.750Z,2.50
2022-10-05T21:12:13.957Z,2.25
2022-10-05T21:14:40.611Z,2.17
2022-10-05T21:17:07.429Z,2.22
2022-10-05T21:19:38.288Z,2.40
2022-10-05T21:22:07.343Z,2.58
2022-10-05T21:24:35.208Z,2.83
2022-10-05T21:27:01.892Z,2.63
2022-10-05T21:29:28.360Z,2.88
2022-10-05T21:31:54.949Z,2.83
2022-10-05T21:34:21.519Z,2.53
2022-10-05T21:36:47.982Z,2.90
2022-10-05T21:39:14.410Z,2.63
2022-10-05T21:41:40.877Z,2.35
2022-10-05T21:44:07.359Z,2.25
2022-10-05T21:46:35.436Z,2.17
2022-10-05T21:49:01.884Z,2.03
2022-10-05T21:51:28.344Z,2.20
2022-10-05T21:53:56.697Z,2.13
2022-10-05T21:56:28.039Z,2.58
2022-10-05T21:58:54.671Z,1.90
2022-10-05T22:01:22.859Z,2.13
2022-10-05T22:03:49.838Z,1.80
2022-10-05T22:06:16.364Z,1.42
2022-10-05T22:08:42.836Z,0.93
2022-10-05T22:11:13.801Z,1.00
2022-10-05T22:13:48.116Z,0.73
2022-10-05T22:16:15.718Z,0.80
2022-10-05T22:18:42.861Z,1.17
2022-10-05T22:21:11.982Z,0.70
2022-10-05T22:23:41.384Z,0.85
2022-10-05T22:26:09.499Z,0.90
2022-10-05T22:28:37.162Z,0.77
2022-10-05T22:31:05.471Z,0.80
2022-10-05T22:33:31.996Z,0.70
2022-10-05T22:35:59.134Z,0.70
2022-10-05T22:38:26.153Z,0.90
2022-10-05T22:40:52.978Z,0.80
2022-10-05T22:43:19.575Z,0.88
2022-10-05T22:45:46.124Z,0.82
2022-10-05T22:48:12.822Z,1.00
2022-10-05T22:50:39.277Z,0.70
2022-10-05T22:53:05.869Z,1.10
2022-10-05T22:55:32.392Z,0.90
2022-10-05T22:57:58.901Z,1.30
2022-10-05T23:00:40.370Z,0.95
2022-10-05T23:03:12.805Z,0.90
2022-10-05T23:05:39.225Z,1.13
2022-10-05T23:08:08.036Z,1.38
2022-10-05T23:10:34.576Z,1.25
2022-10-05T23:13:01.877Z,1.05
2022-10-05T23:15:28.397Z,1.15
2022-10-05T23:17:56.180Z,1.33
2022-10-05T23:20:23.427Z,1.50
2022-10-05T23:22:50.017Z,1.48
2022-10-05T23:25:17.869Z,1.17
2022-10-05T23:27:45.675Z,1.25
2022-10-05T23:30:12.861Z,0.90
2022-10-05T23:32:40.678Z,1.27
2022-10-05T23:35:08.359Z,1.33
2022-10-05T23:37:42.540Z,1.35
2022-10-05T23:40:10.448Z,1.40
2022-10-05T23:42:36.951Z,1.48
2022-10-05T23:45:06.371Z,1.20
2022-10-05T23:47:32.847Z,1.60
2022-10-05T23:49:59.329Z,1.00
2022-10-05T23:52:25.806Z,1.02
2022-10-05T23:54:52.281Z,1.02
2022-10-05T23:57:19.281Z,1.10
2022-10-05T23:59:45.976Z,1.13
